Barnerville, New York
Current Conditions -  °F | °C
As of 4:55 AM on Thursday 25 Dec 2014 (Local Time) from KNY0 Reporting Station
Overcast Overcast  
Wind Chill:   Ceiling: 2700
Heat Index:   Visibility: 10mi
Dew Point:   Wind: 17mph
Humidity: 90%   Direction: 270°W
Pressure: 29.48"   Gusts: 30mph
Location:  42.7023°N, 74.392°W
Report Text: KNY0 250955Z AUTO 27015G26KT 10SM SCT017 BKN027 OVC032 08/06 A2948 RMK AO2 P0001 T00770062
Loading
Personal Weather Stations






























Interactive Weather Map New forecast layout! Learn more

10-Day Weather Forecast

Advertisements
Track Severe Weather on mobile